createdAt,value
2023-01-12T00:02:09.926Z,21.11
2023-01-12T00:04:40.292Z,21.07
2023-01-12T00:07:12.178Z,21.06
2023-01-12T00:09:42.228Z,21.03
2023-01-12T00:12:14.673Z,21.00
2023-01-12T00:14:45.148Z,20.98
2023-01-12T00:17:20.045Z,20.98
2023-01-12T00:19:51.780Z,20.98
2023-01-12T00:22:22.218Z,20.97
2023-01-12T00:24:52.978Z,20.96
2023-01-12T00:27:24.232Z,20.94
2023-01-12T00:29:54.563Z,20.93
2023-01-12T00:32:26.475Z,20.92
2023-01-12T00:34:56.635Z,20.90
2023-01-12T00:37:28.198Z,20.92
2023-01-12T00:40:02.409Z,20.90
2023-01-12T00:42:49.882Z,20.90
2023-01-12T00:45:26.150Z,20.89
2023-01-12T00:47:58.227Z,20.89
2023-01-12T00:50:28.735Z,20.89
2023-01-12T00:52:58.834Z,20.89
2023-01-12T00:55:29.194Z,20.87
2023-01-12T00:58:00.676Z,20.85
2023-01-12T01:00:31.168Z,20.82
2023-01-12T01:03:03.496Z,20.79
2023-01-12T01:05:33.827Z,20.77
2023-01-12T01:08:06.092Z,20.76
2023-01-12T01:10:36.243Z,20.76
2023-01-12T01:13:05.950Z,20.76
2023-01-12T01:15:36.428Z,20.74
2023-01-12T01:18:09.051Z,20.75
2023-01-12T01:20:39.610Z,20.74
2023-01-12T01:23:10.240Z,20.74
2023-01-12T01:25:40.633Z,20.72
2023-01-12T01:28:11.003Z,20.70
2023-01-12T01:30:41.476Z,20.69
2023-01-12T01:33:14.016Z,20.69
2023-01-12T01:35:44.838Z,20.69
2023-01-12T01:38:15.119Z,20.71
2023-01-12T01:40:45.779Z,20.71
2023-01-12T01:43:18.311Z,20.72
2023-01-12T01:45:59.949Z,20.71
2023-01-12T01:48:36.417Z,20.74
2023-01-12T01:51:12.178Z,20.75
2023-01-12T01:53:47.381Z,20.75
2023-01-12T01:56:25.897Z,20.76
2023-01-12T01:59:01.799Z,20.76
2023-01-12T02:01:32.640Z,20.78
2023-01-12T02:04:05.344Z,20.79
2023-01-12T02:06:36.037Z,20.78
2023-01-12T02:09:14.828Z,20.79
2023-01-12T02:12:02.242Z,20.77
2023-01-12T02:14:52.027Z,20.76
2023-01-12T02:17:51.990Z,20.74
2023-01-12T02:20:58.573Z,20.74
2023-01-12T02:24:13.262Z,20.72
2023-01-12T02:27:24.176Z,20.71
2023-01-12T02:30:54.357Z,20.69
2023-01-12T02:33:48.772Z,20.67
2023-01-12T02:36:32.386Z,20.67
2023-01-12T02:39:15.636Z,20.67
2023-01-12T02:42:15.711Z,20.67
2023-01-12T02:44:57.686Z,20.67
2023-01-12T02:47:40.056Z,20.67
2023-01-12T02:50:22.195Z,20.68
2023-01-12T02:53:00.529Z,20.66
2023-01-12T02:55:33.747Z,20.66
2023-01-12T02:58:07.511Z,20.66
2023-01-12T03:00:42.104Z,20.68
2023-01-12T03:03:12.907Z,20.67
2023-01-12T03:05:46.298Z,20.66
2023-01-12T03:08:24.029Z,20.67
2023-01-12T03:11:09.525Z,20.67
2023-01-12T03:13:46.004Z,20.68
2023-01-12T03:16:20.089Z,20.68
2023-01-12T03:18:57.569Z,20.68
2023-01-12T03:21:38.335Z,20.68
2023-01-12T03:24:14.236Z,20.65
2023-01-12T03:26:50.171Z,20.64
2023-01-12T03:29:32.297Z,20.64
2023-01-12T03:32:03.187Z,20.63
2023-01-12T03:34:35.379Z,20.63
2023-01-12T03:37:18.464Z,20.63
2023-01-12T03:40:00.708Z,20.63
2023-01-12T03:42:39.973Z,20.63
2023-01-12T03:45:26.700Z,20.61
2023-01-12T03:48:10.315Z,20.60
2023-01-12T03:50:48.537Z,20.58
2023-01-12T03:53:25.967Z,20.58
2023-01-12T03:56:02.560Z,20.57
2023-01-12T03:58:35.236Z,20.56
2023-01-12T04:01:06.658Z,20.57
2023-01-12T04:03:36.754Z,20.58
2023-01-12T04:06:08.713Z,20.59
2023-01-12T04:08:41.119Z,20.59
2023-01-12T04:11:24.942Z,20.61
2023-01-12T04:13:55.697Z,20.60
2023-01-12T04:16:26.238Z,20.60
2023-01-12T04:18:56.431Z,20.61
2023-01-12T04:21:52.144Z,20.60
2023-01-12T04:24:23.970Z,20.56
2023-01-12T04:26:53.785Z,20.52
2023-01-12T04:29:24.200Z,20.52
2023-01-12T04:31:54.048Z,20.52
2023-01-12T04:34:24.544Z,20.53
2023-01-12T04:36:54.543Z,20.53
2023-01-12T04:39:26.435Z,20.55
2023-01-12T04:41:56.686Z,20.54
2023-01-12T04:44:27.032Z,20.53
2023-01-12T04:46:57.291Z,20.52
2023-01-12T04:49:27.735Z,20.51
2023-01-12T04:51:57.663Z,20.50
2023-01-12T04:54:29.609Z,20.50
2023-01-12T04:56:59.430Z,20.50
2023-01-12T04:59:31.165Z,20.49
2023-01-12T05:02:01.710Z,20.48
2023-01-12T05:04:32.103Z,20.48
2023-01-12T05:07:02.536Z,20.48
2023-01-12T05:09:50.713Z,20.48
2023-01-12T05:12:21.243Z,20.48
2023-01-12T05:14:53.108Z,20.48
2023-01-12T05:17:23.932Z,20.48
2023-01-12T05:19:54.508Z,20.47
2023-01-12T05:22:24.653Z,20.47
2023-01-12T05:24:56.471Z,20.46
2023-01-12T05:27:27.211Z,20.46
2023-01-12T05:30:00.041Z,20.47
2023-01-12T05:32:30.460Z,20.48
2023-01-12T05:35:00.711Z,20.50
2023-01-12T05:37:31.753Z,20.51
2023-01-12T05:40:03.350Z,20.51
2023-01-12T05:42:49.997Z,20.53
2023-01-12T05:45:19.979Z,20.51
2023-01-12T05:47:50.114Z,20.54
2023-01-12T05:50:20.507Z,20.56
2023-01-12T05:52:54.127Z,20.58
2023-01-12T05:55:26.524Z,20.60
2023-01-12T05:57:56.913Z,20.62
2023-01-12T06:00:27.471Z,20.64
2023-01-12T06:02:57.876Z,20.68
2023-01-12T06:05:28.103Z,20.72
2023-01-12T06:07:58.281Z,20.76
2023-01-12T06:10:30.509Z,20.79
2023-01-12T06:13:17.234Z,20.82
2023-01-12T06:15:47.668Z,20.85
2023-01-12T06:18:19.278Z,20.89
2023-01-12T06:20:49.194Z,20.92
2023-01-12T06:23:19.207Z,20.94
2023-01-12T06:25:50.402Z,21.00
2023-01-12T06:28:20.241Z,21.09
2023-01-12T06:30:58.848Z,21.28
2023-01-12T06:33:30.887Z,21.49
2023-01-12T06:36:01.798Z,21.73
2023-01-12T06:38:35.412Z,22.00
2023-01-12T06:41:09.182Z,22.32
2023-01-12T06:43:39.303Z,22.64
2023-01-12T06:46:09.229Z,22.99
2023-01-12T06:48:39.717Z,23.31
2023-01-12T06:51:10.196Z,23.61
2023-01-12T06:53:40.553Z,23.79
2023-01-12T06:56:12.528Z,23.93
2023-01-12T06:58:46.041Z,24.00
2023-01-12T07:01:17.403Z,24.00
2023-01-12T07:03:47.927Z,23.95
2023-01-12T07:06:17.720Z,23.91
2023-01-12T07:08:48.065Z,23.86
2023-01-12T07:11:19.930Z,23.82
2023-01-12T07:13:49.784Z,23.80
2023-01-12T07:16:19.460Z,23.81
2023-01-12T07:18:50.086Z,23.84
2023-01-12T07:21:20.463Z,23.84
2023-01-12T07:23:50.959Z,23.83
2023-01-12T07:26:22.496Z,23.83
2023-01-12T07:28:52.684Z,23.86
2023-01-12T07:31:23.108Z,23.91
2023-01-12T07:33:56.178Z,23.97
2023-01-12T07:36:26.970Z,24.01
2023-01-12T07:38:57.165Z,24.03
2023-01-12T07:41:46.324Z,24.04
2023-01-12T07:44:16.514Z,24.05
2023-01-12T07:46:47.622Z,24.05
2023-01-12T07:49:17.647Z,24.06
2023-01-12T07:51:47.495Z,24.04
2023-01-12T07:54:17.905Z,24.01
2023-01-12T07:56:50.030Z,23.99
2023-01-12T07:59:20.152Z,23.96
2023-01-12T08:01:53.866Z,23.94
2023-01-12T08:04:25.377Z,23.91
2023-01-12T08:06:55.792Z,23.86
2023-01-12T08:09:26.284Z,23.84
2023-01-12T08:11:58.655Z,23.79
2023-01-12T08:14:35.510Z,23.76
2023-01-12T08:17:09.721Z,23.75
2023-01-12T08:19:45.974Z,23.77
2023-01-12T08:22:23.324Z,23.79
2023-01-12T08:25:00.761Z,23.80
2023-01-12T08:27:37.987Z,23.80
2023-01-12T08:30:09.982Z,23.81
2023-01-12T08:32:40.531Z,23.80
2023-01-12T08:35:14.552Z,23.82
2023-01-12T08:37:44.661Z,23.86
2023-01-12T08:40:15.792Z,23.91
2023-01-12T08:42:47.736Z,23.94
2023-01-12T08:45:18.345Z,23.96
2023-01-12T08:47:48.522Z,23.97
2023-01-12T08:50:19.176Z,23.96
2023-01-12T08:52:49.525Z,23.93
2023-01-12T08:55:19.688Z,23.91
2023-01-12T08:57:52.089Z,23.88
2023-01-12T09:00:23.684Z,23.86
2023-01-12T09:02:53.258Z,23.84
2023-01-12T09:05:23.253Z,23.85
2023-01-12T09:07:53.290Z,23.84
2023-01-12T09:10:23.289Z,23.85
2023-01-12T09:12:55.355Z,23.86
2023-01-12T09:15:25.919Z,23.87
2023-01-12T09:17:55.956Z,23.89
2023-01-12T09:20:26.219Z,23.94
2023-01-12T09:22:56.633Z,23.99
2023-01-12T09:25:26.904Z,24.03
2023-01-12T09:27:59.237Z,24.07
2023-01-12T09:30:29.405Z,24.09
2023-01-12T09:33:01.720Z,24.13
2023-01-12T09:35:33.017Z,24.16
2023-01-12T09:38:02.916Z,24.19
2023-01-12T09:40:33.375Z,24.23
2023-01-12T09:43:22.865Z,24.26
2023-01-12T09:46:09.473Z,24.25
2023-01-12T09:48:42.276Z,24.22
2023-01-12T09:51:23.022Z,24.24
2023-01-12T09:53:53.357Z,24.23
2023-01-12T09:56:32.161Z,24.26
2023-01-12T09:59:41.998Z,24.28
2023-01-12T10:02:15.315Z,24.29
2023-01-12T10:04:45.968Z,24.31
2023-01-12T10:07:20.828Z,24.35
2023-01-12T10:09:51.184Z,24.37
2023-01-12T10:12:30.811Z,24.40
2023-01-12T10:15:26.370Z,24.39
2023-01-12T10:18:05.687Z,24.38
2023-01-12T10:20:42.666Z,24.37
2023-01-12T10:23:19.552Z,24.39
2023-01-12T10:25:51.279Z,24.40
2023-01-12T10:28:27.450Z,24.40
2023-01-12T10:31:00.733Z,24.41
2023-01-12T10:33:33.571Z,24.41
2023-01-12T10:36:08.295Z,24.42
2023-01-12T10:38:41.264Z,24.44
2023-01-12T10:41:21.218Z,24.44
2023-01-12T10:44:16.603Z,24.41
2023-01-12T10:47:12.496Z,24.38
2023-01-12T10:49:43.001Z,24.34
2023-01-12T10:52:37.891Z,24.28
2023-01-12T10:55:08.256Z,24.24
2023-01-12T10:57:39.131Z,24.25
2023-01-12T11:00:25.228Z,24.25
2023-01-12T11:02:58.804Z,24.24
2023-01-12T11:05:38.922Z,24.26
2023-01-12T11:08:26.216Z,24.28
2023-01-12T11:10:56.572Z,24.29
2023-01-12T11:13:36.893Z,24.33
2023-01-12T11:16:20.559Z,24.37
2023-01-12T11:19:09.853Z,24.38
2023-01-12T11:21:46.266Z,24.38
2023-01-12T11:24:35.982Z,24.40
2023-01-12T11:27:18.196Z,24.42
2023-01-12T11:29:59.983Z,24.45
2023-01-12T11:32:42.410Z,24.45
2023-01-12T11:35:31.892Z,24.47
2023-01-12T11:38:12.709Z,24.46
2023-01-12T11:40:46.236Z,24.47
2023-01-12T11:43:50.490Z,24.46
2023-01-12T11:46:30.288Z,24.46
2023-01-12T11:49:13.940Z,24.46
2023-01-12T11:51:47.436Z,24.45
2023-01-12T11:54:20.950Z,24.45
2023-01-12T11:57:25.700Z,24.43
2023-01-12T12:00:23.014Z,24.39
2023-01-12T12:03:09.200Z,24.38
2023-01-12T12:05:51.512Z,24.38
2023-01-12T12:08:45.855Z,24.37
2023-01-12T12:11:29.261Z,24.35
2023-01-12T12:14:15.729Z,24.33
2023-01-12T12:16:57.757Z,24.31
2023-01-12T12:19:43.261Z,24.27
2023-01-12T12:22:36.639Z,24.22
2023-01-12T12:25:25.942Z,24.19
2023-01-12T12:28:32.142Z,24.17
2023-01-12T12:31:38.922Z,24.12
2023-01-12T12:34:55.573Z,24.07
2023-01-12T12:37:43.939Z,24.03
2023-01-12T12:40:58.533Z,23.99
2023-01-12T12:43:52.063Z,23.97
2023-01-12T12:46:34.940Z,23.94
2023-01-12T12:49:12.365Z,23.91
2023-01-12T12:51:45.333Z,23.90
2023-01-12T12:54:21.206Z,23.90
2023-01-12T12:56:54.063Z,23.88
2023-01-12T12:59:58.335Z,23.87
2023-01-12T13:02:44.166Z,23.86
2023-01-12T13:05:14.691Z,23.84
2023-01-12T13:07:54.183Z,23.85
2023-01-12T13:10:33.936Z,23.85
2023-01-12T13:13:32.300Z,23.82
2023-01-12T13:16:49.043Z,23.77
2023-01-12T13:19:39.798Z,23.73
2023-01-12T13:22:46.968Z,23.71
2023-01-12T13:25:58.878Z,23.69
2023-01-12T13:28:30.849Z,23.68
2023-01-12T13:31:02.884Z,23.65
2023-01-12T13:33:35.122Z,23.62
2023-01-12T13:36:11.175Z,23.60
2023-01-12T13:39:09.723Z,23.54
2023-01-12T13:42:01.617Z,23.50
2023-01-12T13:44:40.159Z,23.47
2023-01-12T13:47:18.196Z,23.46
2023-01-12T13:49:55.709Z,23.45
2023-01-12T13:52:31.397Z,23.42
2023-01-12T13:55:01.886Z,23.38
2023-01-12T13:57:34.247Z,23.34
2023-01-12T14:00:11.567Z,23.34
2023-01-12T14:02:44.026Z,23.32
2023-01-12T14:05:37.171Z,23.31
2023-01-12T14:08:50.580Z,23.30
2023-01-12T14:12:01.202Z,23.27
2023-01-12T14:15:15.250Z,23.25
2023-01-12T14:17:58.021Z,23.21
2023-01-12T14:20:32.112Z,23.20
2023-01-12T14:23:20.283Z,23.19
2023-01-12T14:26:06.516Z,23.17
2023-01-12T14:28:59.827Z,23.17
2023-01-12T14:31:39.864Z,23.18
2023-01-12T14:34:30.435Z,23.18
2023-01-12T14:37:01.442Z,23.19
2023-01-12T14:39:41.479Z,23.19
2023-01-12T14:42:37.194Z,23.18
2023-01-12T14:45:43.412Z,23.15
2023-01-12T14:48:28.588Z,23.14
2023-01-12T14:51:20.056Z,23.13
2023-01-12T14:53:58.918Z,23.12
2023-01-12T14:56:38.002Z,23.10
2023-01-12T14:59:17.730Z,23.10
2023-01-12T15:01:48.484Z,23.09
2023-01-12T15:04:22.086Z,23.12
2023-01-12T15:07:04.508Z,23.13
2023-01-12T15:09:38.606Z,23.13
2023-01-12T15:12:49.026Z,23.12
2023-01-12T15:15:22.783Z,23.11
2023-01-12T15:18:12.597Z,23.10
2023-01-12T15:21:03.334Z,23.08
2023-01-12T15:23:55.467Z,23.07
2023-01-12T15:26:26.203Z,23.06
2023-01-12T15:28:56.500Z,23.06
2023-01-12T15:31:31.198Z,23.05
2023-01-12T15:34:02.497Z,23.05
2023-01-12T15:36:33.261Z,23.07
2023-01-12T15:39:05.415Z,23.07
2023-01-12T15:41:52.241Z,23.07
2023-01-12T15:44:24.719Z,23.06
2023-01-12T15:46:55.208Z,23.06
2023-01-12T15:49:25.350Z,23.05
2023-01-12T15:51:56.046Z,23.05
2023-01-12T15:54:27.963Z,23.05
2023-01-12T15:57:00.331Z,23.05
2023-01-12T15:59:30.663Z,23.04
2023-01-12T16:02:00.573Z,23.06
2023-01-12T16:04:46.277Z,23.05
2023-01-12T16:07:16.712Z,23.06
2023-01-12T16:09:51.047Z,23.04
2023-01-12T16:12:21.668Z,23.03
2023-01-12T16:14:52.259Z,23.03
2023-01-12T16:17:22.595Z,23.02
2023-01-12T16:19:52.848Z,23.01
2023-01-12T16:22:27.040Z,23.02
2023-01-12T16:24:59.845Z,23.01
2023-01-12T16:27:30.831Z,23.01
2023-01-12T16:30:00.915Z,23.01
2023-01-12T16:32:32.085Z,23.00
2023-01-12T16:35:02.094Z,22.99
2023-01-12T16:37:33.594Z,22.99
2023-01-12T16:40:05.787Z,22.99
2023-01-12T16:42:35.742Z,22.97
2023-01-12T16:45:06.637Z,22.94
2023-01-12T16:47:37.012Z,22.94
2023-01-12T16:50:07.907Z,22.92
2023-01-12T16:52:38.298Z,22.90
2023-01-12T16:55:12.204Z,22.89
2023-01-12T16:57:43.045Z,22.86
2023-01-12T17:00:16.002Z,22.84
2023-01-12T17:02:46.224Z,22.82
2023-01-12T17:05:16.109Z,22.79
2023-01-12T17:07:46.652Z,22.78
2023-01-12T17:10:20.138Z,22.76
2023-01-12T17:12:56.669Z,22.75
2023-01-12T17:15:32.310Z,22.72
2023-01-12T17:18:02.228Z,22.71
2023-01-12T17:20:32.752Z,22.69
2023-01-12T17:23:03.510Z,22.68
2023-01-12T17:25:36.509Z,22.65
2023-01-12T17:28:07.501Z,22.61
2023-01-12T17:30:37.478Z,22.58
2023-01-12T17:33:07.954Z,22.53
2023-01-12T17:35:38.808Z,22.48
2023-01-12T17:38:09.332Z,22.43
2023-01-12T17:40:42.363Z,22.39
2023-01-12T17:43:15.291Z,22.35
2023-01-12T17:45:46.584Z,22.31
2023-01-12T17:48:19.699Z,22.27
2023-01-12T17:50:50.221Z,22.25
2023-01-12T17:53:20.604Z,22.22
2023-01-12T17:55:53.306Z,22.20
2023-01-12T17:58:24.975Z,22.18
2023-01-12T18:00:55.107Z,22.17
2023-01-12T18:03:26.005Z,22.15
2023-01-12T18:06:04.455Z,22.14
2023-01-12T18:08:35.155Z,22.12
2023-01-12T18:11:10.120Z,22.12
2023-01-12T18:13:41.620Z,22.10
2023-01-12T18:16:24.120Z,22.06
2023-01-12T18:18:55.915Z,22.04
2023-01-12T18:21:29.379Z,22.00
2023-01-12T18:24:00.051Z,21.98
2023-01-12T18:26:39.394Z,21.96
2023-01-12T18:29:13.456Z,21.95
2023-01-12T18:31:43.752Z,21.93
2023-01-12T18:34:14.846Z,21.92
2023-01-12T18:36:45.459Z,21.92
2023-01-12T18:39:21.518Z,21.92
2023-01-12T18:42:10.469Z,21.90
2023-01-12T18:44:40.502Z,21.87
2023-01-12T18:47:31.775Z,21.86
2023-01-12T18:50:21.580Z,21.83
2023-01-12T18:53:08.431Z,21.81
2023-01-12T18:55:39.362Z,21.78
2023-01-12T18:58:12.385Z,21.77
2023-01-12T19:00:42.784Z,21.75
2023-01-12T19:03:14.275Z,21.74
2023-01-12T19:05:55.248Z,21.72
2023-01-12T19:08:42.439Z,21.73
2023-01-12T19:11:14.817Z,21.72
2023-01-12T19:14:03.770Z,21.73
2023-01-12T19:16:50.966Z,21.74
2023-01-12T19:19:24.797Z,21.74
2023-01-12T19:22:17.374Z,21.73
2023-01-12T19:25:04.262Z,21.71
2023-01-12T19:27:51.144Z,21.71
2023-01-12T19:30:23.844Z,21.67
2023-01-12T19:32:54.581Z,21.66
2023-01-12T19:35:25.363Z,21.66
2023-01-12T19:37:56.302Z,21.67
2023-01-12T19:40:34.016Z,21.67
2023-01-12T19:43:14.217Z,21.68
2023-01-12T19:45:49.011Z,21.68
2023-01-12T19:48:21.971Z,21.69
2023-01-12T19:50:52.911Z,21.67
2023-01-12T19:53:28.372Z,21.65
2023-01-12T19:55:58.826Z,21.58
2023-01-12T19:58:29.266Z,21.52
2023-01-12T20:01:01.454Z,21.47
2023-01-12T20:03:32.020Z,21.42
2023-01-12T20:06:07.214Z,21.38
2023-01-12T20:08:38.236Z,21.34
2023-01-12T20:11:08.603Z,21.31
2023-01-12T20:13:39.267Z,21.29
2023-01-12T20:16:13.209Z,21.25
2023-01-12T20:18:44.111Z,21.23
2023-01-12T20:21:15.829Z,21.20
2023-01-12T20:23:46.034Z,21.18
2023-01-12T20:26:16.751Z,21.16
2023-01-12T20:28:47.159Z,21.14
2023-01-12T20:31:20.930Z,21.11
2023-01-12T20:33:51.552Z,21.08
2023-01-12T20:36:22.660Z,21.07
2023-01-12T20:38:53.007Z,21.06
2023-01-12T20:41:23.227Z,21.03
2023-01-12T20:43:53.629Z,21.00
2023-01-12T20:46:26.748Z,20.98
2023-01-12T20:48:57.496Z,20.97
2023-01-12T20:51:27.696Z,20.94
2023-01-12T20:53:59.967Z,20.94
2023-01-12T20:56:31.985Z,20.90
2023-01-12T20:59:02.100Z,20.90
2023-01-12T21:01:34.720Z,20.89
2023-01-12T21:04:04.573Z,20.88
2023-01-12T21:06:35.131Z,20.87
2023-01-12T21:09:13.554Z,20.88
2023-01-12T21:11:47.489Z,20.87
2023-01-12T21:14:17.878Z,20.87
2023-01-12T21:16:50.253Z,20.89
2023-01-12T21:19:20.466Z,20.90
2023-01-12T21:21:50.987Z,20.92
2023-01-12T21:24:21.747Z,20.92
2023-01-12T21:26:51.761Z,20.93
2023-01-12T21:29:21.914Z,20.92
2023-01-12T21:31:54.461Z,20.92
2023-01-12T21:34:25.103Z,20.90
2023-01-12T21:36:55.288Z,20.89
2023-01-12T21:39:25.808Z,20.88
2023-01-12T21:42:12.866Z,20.88
2023-01-12T21:44:43.278Z,20.87
2023-01-12T21:47:15.313Z,20.89
2023-01-12T21:49:45.753Z,20.90
2023-01-12T21:52:16.268Z,20.92
2023-01-12T21:54:46.565Z,20.92
2023-01-12T21:57:16.933Z,20.93
2023-01-12T21:59:47.311Z,20.93
2023-01-12T22:02:19.724Z,20.92
2023-01-12T22:04:52.279Z,20.91
2023-01-12T22:07:23.067Z,20.91
2023-01-12T22:09:53.440Z,20.92
2023-01-12T22:12:29.008Z,20.94
2023-01-12T22:14:58.956Z,20.94
2023-01-12T22:17:31.438Z,20.95
2023-01-12T22:20:01.336Z,20.96
2023-01-12T22:22:31.395Z,20.97
2023-01-12T22:25:01.574Z,20.97
2023-01-12T22:27:32.968Z,20.98
2023-01-12T22:30:03.768Z,20.99
2023-01-12T22:32:35.790Z,21.01
2023-01-12T22:35:06.376Z,21.02
2023-01-12T22:37:40.311Z,21.03
2023-01-12T22:40:14.473Z,21.01
2023-01-12T22:43:05.088Z,20.97
2023-01-12T22:45:38.437Z,20.89
2023-01-12T22:48:11.705Z,20.83
2023-01-12T22:50:42.070Z,20.77
2023-01-12T22:53:12.170Z,20.74
2023-01-12T22:55:42.149Z,20.72
2023-01-12T22:58:12.424Z,20.71
2023-01-12T23:00:42.603Z,20.74
2023-01-12T23:03:16.428Z,20.77
2023-01-12T23:05:50.118Z,20.79
2023-01-12T23:08:20.742Z,20.80
2023-01-12T23:10:51.244Z,20.84
2023-01-12T23:13:22.906Z,20.86
2023-01-12T23:15:57.466Z,20.86
2023-01-12T23:18:32.252Z,20.87
2023-01-12T23:21:12.125Z,20.86
2023-01-12T23:23:44.602Z,20.85
2023-01-12T23:26:19.343Z,20.82
2023-01-12T23:28:52.704Z,20.80
2023-01-12T23:31:26.207Z,20.78
2023-01-12T23:33:58.878Z,20.76
2023-01-12T23:36:32.600Z,20.77
2023-01-12T23:39:06.143Z,20.78
2023-01-12T23:41:39.222Z,20.77
2023-01-12T23:44:12.378Z,20.76
2023-01-12T23:46:44.206Z,20.74
2023-01-12T23:49:16.922Z,20.71
2023-01-12T23:51:47.392Z,20.69
2023-01-12T23:54:20.372Z,20.67
2023-01-12T23:56:54.927Z,20.65
2023-01-12T23:59:25.391Z,20.62
